PWSweather.com
Personal Weather Stations
Station Observations
IBAVARIA50
Munich, PlieningDE 85652

MunichPlieningDE 85652

Lat: 48.19916153, Lon: 11.79794312

Elevation: 504

Station Type: Davis Vantage Pro2

http://wetterstation-pliening.info

High Low Average
Temperature 83.8°F28.8°C 60.7°F15.9°C 73.1°F22.8°C
Dew Point 64.0°F17.8°C 56.1°F13.4°C 60.2°F15.7°C
Winds 10.0 mph 16.1 kmh Calm Calm 3.0 mph SW4.8 kmh SW
Wind Gusts 12.0 mph19.3 kmh -- 5.0 mph8.0 kmh
Humidity 86% 46% 65%
Pressure 29.88 in1011.9 mb 29.78 in1008.5 mb -
Precipitation 0.01 in0.3 mm - -
Hour Temp Dew Point Humidity Winds Wind Gusts Pressure Precip Precip Rate Daily Precip Total
12:00 AM 68.3°F20.2°C 56.9°F13.8°C 67% 5.0 mph SE8.0 kmh SE 5.0 mph8.0 kmh 29.87 in1011.5 mb 0.00 in0.0 mm 0.00 in0.0 mm 0.00 in0.0 mm
12:20 AM 67.6°F19.8°C 58.2°F14.6°C 72% 1.0 mph SSW1.6 kmh SSW 9.0 mph14.5 kmh 29.87 in1011.5 mb 0.00 in0.0 mm 0.00 in0.0 mm 0.00 in0.0 mm
12:25 AM 67.3°F19.6°C 58.3°F14.6°C 73% 3.0 mph SSE4.8 kmh SSE 6.0 mph9.7 kmh 29.87 in1011.5 mb 0.00 in0.0 mm 0.00 in0.0 mm 0.00 in0.0 mm
12:30 AM 67.0°F19.4°C 58.4°F14.7°C 74% 1.0 mph S1.6 kmh S 3.0 mph4.8 kmh 29.87 in1011.5 mb 0.00 in0.0 mm 0.00 in0.0 mm 0.00 in0.0 mm
12:40 AM 66.8°F19.3°C 58.6°F14.8°C 75% 1.0 mph SSE1.6 kmh SSE 3.0 mph4.8 kmh 29.88 in1011.9 mb 0.00 in0.0 mm 0.00 in0.0 mm 0.00 in0.0 mm
12:45 AM 66.7°F19.3°C 58.5°F14.7°C 75% 2.0 mph S3.2 kmh S 3.0 mph4.8 kmh 29.88 in1011.9 mb 0.00 in0.0 mm 0.00 in0.0 mm 0.00 in0.0 mm
12:50 AM 66.5°F19.2°C 58.6°F14.8°C 76% Calm Calm 4.0 mph6.4 kmh 29.87 in1011.5 mb 0.00 in0.0 mm 0.00 in0.0 mm 0.00 in0.0 mm
12:55 AM 66.3°F19.1°C 58.4°F14.7°C 76% 2.0 mph SSE3.2 kmh SSE 5.0 mph8.0 kmh 29.87 in1011.5 mb 0.00 in0.0 mm 0.00 in0.0 mm 0.00 in0.0 mm
01:00 AM 66.1°F18.9°C 58.6°F14.8°C 77% 3.0 mph S4.8 kmh S 3.0 mph4.8 kmh 29.87 in1011.5 mb 0.00 in0.0 mm 0.00 in0.0 mm 0.00 in0.0 mm
01:05 AM 66.0°F18.9°C 58.5°F14.7°C 77% Calm Calm 3.0 mph4.8 kmh 29.87 in1011.5 mb 0.00 in0.0 mm 0.00 in0.0 mm 0.00 in0.0 mm
01:10 AM 65.9°F18.8°C 58.4°F14.7°C 77% 1.0 mph S1.6 kmh S 2.0 mph3.2 kmh 29.87 in1011.5 mb 0.00 in0.0 mm 0.00 in0.0 mm 0.00 in0.0 mm
01:15 AM 65.7°F18.7°C 58.6°F14.8°C 78% Calm Calm 2.0 mph3.2 kmh 29.87 in1011.5 mb 0.00 in0.0 mm 0.00 in0.0 mm 0.00 in0.0 mm
01:20 AM 65.4°F18.6°C 58.3°F14.6°C 78% Calm Calm 1.0 mph1.6 kmh 29.87 in1011.5 mb 0.00 in0.0 mm 0.00 in0.0 mm 0.00 in0.0 mm
01:25 AM 65.3°F18.5°C 58.2°F14.6°C 78% 1.0 mph S1.6 kmh S 3.0 mph4.8 kmh 29.87 in1011.5 mb 0.00 in0.0 mm 0.00 in0.0 mm 0.00 in0.0 mm
01:30 AM 65.1°F18.4°C 58.4°F14.7°C 79% 3.0 mph S4.8 kmh S 3.0 mph4.8 kmh 29.87 in1011.5 mb 0.00 in0.0 mm 0.00 in0.0 mm 0.00 in0.0 mm
01:35 AM 65.0°F18.3°C 58.3°F14.6°C 79% 1.0 mph S1.6 kmh S 3.0 mph4.8 kmh 29.86 in1011.2 mb 0.00 in0.0 mm 0.00 in0.0 mm 0.00 in0.0 mm
01:40 AM 65.0°F18.3°C 58.3°F14.6°C 79% 1.0 mph S1.6 kmh S 2.0 mph3.2 kmh 29.86 in1011.2 mb 0.00 in0.0 mm 0.00 in0.0 mm 0.00 in0.0 mm
02:30 AM 63.1°F17.3°C 57.1°F13.9°C 81% 3.0 mph ESE4.8 kmh ESE 4.0 mph6.4 kmh 29.86 in1011.2 mb 0.00 in0.0 mm 0.00 in0.0 mm 0.00 in0.0 mm
03:00 AM 62.3°F16.8°C 56.7°F13.7°C 82% 1.0 mph SE1.6 kmh SE 3.0 mph4.8 kmh 29.85 in1010.8 mb 0.00 in0.0 mm 0.00 in0.0 mm 0.00 in0.0 mm
03:35 AM 61.7°F16.5°C 56.4°F13.6°C 83% 2.0 mph SSW3.2 kmh SSW 3.0 mph4.8 kmh 29.85 in1010.8 mb 0.00 in0.0 mm 0.00 in0.0 mm 0.00 in0.0 mm
03:40 AM 61.6°F16.4°C 56.7°F13.7°C 84% 2.0 mph S3.2 kmh S 3.0 mph4.8 kmh 29.85 in1010.8 mb 0.00 in0.0 mm 0.00 in0.0 mm 0.00 in0.0 mm
04:15 AM 61.4°F16.3°C 56.5°F13.6°C 84% Calm Calm 1.0 mph1.6 kmh 29.86 in1011.2 mb 0.00 in0.0 mm 0.00 in0.0 mm 0.00 in0.0 mm
04:20 AM 61.3°F16.3°C 56.4°F13.6°C 84% Calm Calm -- 29.86 in1011.2 mb 0.00 in0.0 mm 0.00 in0.0 mm 0.00 in0.0 mm
04:25 AM 61.2°F16.2°C 56.3°F13.5°C 84% 1.0 mph SSW1.6 kmh SSW 4.0 mph6.4 kmh 29.86 in1011.2 mb 0.00 in0.0 mm 0.00 in0.0 mm 0.00 in0.0 mm
04:30 AM 61.2°F16.2°C 56.3°F13.5°C 84% 1.0 mph S1.6 kmh S 4.0 mph6.4 kmh 29.86 in1011.2 mb 0.00 in0.0 mm 0.00 in0.0 mm 0.00 in0.0 mm
04:35 AM 61.2°F16.2°C 56.3°F13.5°C 84% 1.0 mph S1.6 kmh S 2.0 mph3.2 kmh 29.86 in1011.2 mb 0.00 in0.0 mm 0.00 in0.0 mm 0.00 in0.0 mm
04:40 AM 61.1°F16.2°C 56.2°F13.4°C 84% 1.0 mph S1.6 kmh S 3.0 mph4.8 kmh 29.86 in1011.2 mb 0.00 in0.0 mm 0.00 in0.0 mm 0.00 in0.0 mm
04:45 AM 61.2°F16.2°C 56.3°F13.5°C 84% 2.0 mph SE3.2 kmh SE 3.0 mph4.8 kmh 29.86 in1011.2 mb 0.00 in0.0 mm 0.00 in0.0 mm 0.00 in0.0 mm
04:50 AM 61.0°F16.1°C 56.1°F13.4°C 84% 1.0 mph ESE1.6 kmh ESE 3.0 mph4.8 kmh 29.86 in1011.2 mb 0.00 in0.0 mm 0.00 in0.0 mm 0.00 in0.0 mm
04:55 AM 60.8°F16.0°C 56.2°F13.4°C 85% Calm Calm 2.0 mph3.2 kmh 29.86 in1011.2 mb 0.00 in0.0 mm 0.00 in0.0 mm 0.00 in0.0 mm
05:00 AM 60.8°F16.0°C 56.2°F13.4°C 85% Calm Calm -- 29.86 in1011.2 mb 0.00 in0.0 mm 0.00 in0.0 mm 0.00 in0.0 mm
05:05 AM 60.7°F15.9°C 56.1°F13.4°C 85% Calm Calm -- 29.87 in1011.5 mb 0.00 in0.0 mm 0.00 in0.0 mm 0.00 in0.0 mm
05:10 AM 60.9°F16.1°C 56.6°F13.7°C 86% Calm Calm -- 29.87 in1011.5 mb 0.00 in0.0 mm 0.00 in0.0 mm 0.00 in0.0 mm
05:15 AM 61.2°F16.2°C 56.6°F13.7°C 85% Calm Calm -- 29.87 in1011.5 mb 0.00 in0.0 mm 0.00 in0.0 mm 0.00 in0.0 mm
05:20 AM 61.5°F16.4°C 56.9°F13.8°C 85% Calm Calm -- 29.87 in1011.5 mb 0.00 in0.0 mm 0.00 in0.0 mm 0.00 in0.0 mm
05:25 AM 61.8°F16.6°C 56.9°F13.8°C 84% Calm Calm -- 29.87 in1011.5 mb 0.00 in0.0 mm 0.00 in0.0 mm 0.00 in0.0 mm
05:30 AM 62.1°F16.7°C 57.2°F14.0°C 84% Calm Calm -- 29.86 in1011.2 mb 0.00 in0.0 mm 0.00 in0.0 mm 0.00 in0.0 mm
05:35 AM 62.3°F16.8°C 57.0°F13.9°C 83% Calm Calm -- 29.87 in1011.5 mb 0.00 in0.0 mm 0.00 in0.0 mm 0.00 in0.0 mm
05:40 AM 62.7°F17.1°C 57.4°F14.1°C 83% Calm Calm -- 29.86 in1011.2 mb 0.00 in0.0 mm 0.00 in0.0 mm 0.00 in0.0 mm
05:45 AM 63.1°F17.3°C 57.5°F14.2°C 82% 3.0 mph SSE4.8 kmh SSE 4.0 mph6.4 kmh 29.86 in1011.2 mb 0.00 in0.0 mm 0.00 in0.0 mm 0.00 in0.0 mm
05:50 AM 63.4°F17.4°C 57.8°F14.3°C 82% 2.0 mph SSE3.2 kmh SSE 4.0 mph6.4 kmh 29.86 in1011.2 mb 0.00 in0.0 mm 0.00 in0.0 mm 0.00 in0.0 mm
05:55 AM 63.8°F17.7°C 57.8°F14.3°C 81% 2.0 mph SSE3.2 kmh SSE 5.0 mph8.0 kmh 29.86 in1011.2 mb 0.00 in0.0 mm 0.00 in0.0 mm 0.00 in0.0 mm
06:00 AM 64.1°F17.8°C 58.1°F14.5°C 81% 1.0 mph SSE1.6 kmh SSE 4.0 mph6.4 kmh 29.86 in1011.2 mb 0.00 in0.0 mm 0.00 in0.0 mm 0.00 in0.0 mm
06:05 AM 64.5°F18.1°C 58.1°F14.5°C 80% 1.0 mph SSW1.6 kmh SSW 4.0 mph6.4 kmh 29.86 in1011.2 mb 0.00 in0.0 mm 0.00 in0.0 mm 0.00 in0.0 mm
06:10 AM 64.9°F18.3°C 58.2°F14.6°C 79% Calm Calm 3.0 mph4.8 kmh 29.86 in1011.2 mb 0.00 in0.0 mm 0.00 in0.0 mm 0.00 in0.0 mm
06:15 AM 65.4°F18.6°C 57.9°F14.4°C 77% 2.0 mph SE3.2 kmh SE 3.0 mph4.8 kmh 29.86 in1011.2 mb 0.00 in0.0 mm 0.00 in0.0 mm 0.00 in0.0 mm
06:20 AM 66.0°F18.9°C 58.5°F14.7°C 77% 3.0 mph SSW4.8 kmh SSW 4.0 mph6.4 kmh 29.86 in1011.2 mb 0.00 in0.0 mm 0.00 in0.0 mm 0.00 in0.0 mm
06:25 AM 66.3°F19.1°C 58.8°F14.9°C 77% Calm Calm 4.0 mph6.4 kmh 29.86 in1011.2 mb 0.00 in0.0 mm 0.00 in0.0 mm 0.00 in0.0 mm
06:30 AM 66.2°F19.0°C 58.7°F14.8°C 77% 2.0 mph SW3.2 kmh SW 3.0 mph4.8 kmh 29.86 in1011.2 mb 0.00 in0.0 mm 0.00 in0.0 mm 0.00 in0.0 mm
06:35 AM 66.3°F19.1°C 58.8°F14.9°C 77% 1.0 mph SW1.6 kmh SW 2.0 mph3.2 kmh 29.86 in1011.2 mb 0.00 in0.0 mm 0.00 in0.0 mm 0.00 in0.0 mm
06:40 AM 66.7°F19.3°C 58.8°F14.9°C 76% 1.0 mph WSW1.6 kmh WSW 3.0 mph4.8 kmh 29.85 in1010.8 mb 0.00 in0.0 mm 0.00 in0.0 mm 0.00 in0.0 mm
06:45 AM 67.3°F19.6°C 59.0°F15.0°C 75% 1.0 mph SW1.6 kmh SW 3.0 mph4.8 kmh 29.86 in1011.2 mb 0.00 in0.0 mm 0.00 in0.0 mm 0.00 in0.0 mm
06:50 AM 67.8°F19.9°C 57.6°F14.2°C 70% 1.0 mph SSE1.6 kmh SSE 7.0 mph11.3 kmh 29.86 in1011.2 mb 0.00 in0.0 mm 0.00 in0.0 mm 0.00 in0.0 mm
06:55 AM 68.5°F20.3°C 57.0°F13.9°C 67% 4.0 mph SSE6.4 kmh SSE 6.0 mph9.7 kmh 29.86 in1011.2 mb 0.00 in0.0 mm 0.00 in0.0 mm 0.00 in0.0 mm
07:00 AM 69.2°F20.7°C 58.1°F14.5°C 68% 4.0 mph S6.4 kmh S 5.0 mph8.0 kmh 29.86 in1011.2 mb 0.00 in0.0 mm 0.00 in0.0 mm 0.00 in0.0 mm
07:05 AM 69.6°F20.9°C 58.1°F14.5°C 67% Calm Calm 5.0 mph8.0 kmh 29.86 in1011.2 mb 0.00 in0.0 mm 0.00 in0.0 mm 0.00 in0.0 mm
07:10 AM 69.8°F21.0°C 57.9°F14.4°C 66% 2.0 mph SW3.2 kmh SW 4.0 mph6.4 kmh 29.86 in1011.2 mb 0.00 in0.0 mm 0.00 in0.0 mm 0.00 in0.0 mm
07:15 AM 69.9°F21.1°C 58.0°F14.4°C 66% 1.0 mph SSW1.6 kmh SSW 4.0 mph6.4 kmh 29.86 in1011.2 mb 0.00 in0.0 mm 0.00 in0.0 mm 0.00 in0.0 mm
07:20 AM 70.2°F21.2°C 57.8°F14.3°C 65% 1.0 mph SSW1.6 kmh SSW 2.0 mph3.2 kmh 29.86 in1011.2 mb 0.00 in0.0 mm 0.00 in0.0 mm 0.00 in0.0 mm
07:25 AM 71.0°F21.7°C 59.0°F15.0°C 66% 2.0 mph ENE3.2 kmh ENE 3.0 mph4.8 kmh 29.86 in1011.2 mb 0.00 in0.0 mm 0.00 in0.0 mm 0.00 in0.0 mm
07:30 AM 71.0°F21.7°C 58.1°F14.5°C 64% 2.0 mph ENE3.2 kmh ENE 4.0 mph6.4 kmh 29.86 in1011.2 mb 0.00 in0.0 mm 0.00 in0.0 mm 0.00 in0.0 mm
07:35 AM 70.7°F21.5°C 58.3°F14.6°C 65% 2.0 mph NE3.2 kmh NE 2.0 mph3.2 kmh 29.86 in1011.2 mb 0.00 in0.0 mm 0.00 in0.0 mm 0.00 in0.0 mm
07:40 AM 70.1°F21.2°C 57.7°F14.3°C 65% 2.0 mph ENE3.2 kmh ENE 3.0 mph4.8 kmh 29.86 in1011.2 mb 0.00 in0.0 mm 0.00 in0.0 mm 0.00 in0.0 mm
07:45 AM 70.1°F21.2°C 58.6°F14.8°C 67% Calm Calm 3.0 mph4.8 kmh 29.86 in1011.2 mb 0.00 in0.0 mm 0.00 in0.0 mm 0.00 in0.0 mm
07:50 AM 70.6°F21.4°C 58.2°F14.6°C 65% 2.0 mph ENE3.2 kmh ENE 4.0 mph6.4 kmh 29.86 in1011.2 mb 0.00 in0.0 mm 0.00 in0.0 mm 0.00 in0.0 mm
07:55 AM 71.0°F21.7°C 59.4°F15.2°C 67% 1.0 mph ESE1.6 kmh ESE 5.0 mph8.0 kmh 29.86 in1011.2 mb 0.00 in0.0 mm 0.00 in0.0 mm 0.00 in0.0 mm
08:00 AM 71.0°F21.7°C 59.4°F15.2°C 67% 3.0 mph NE4.8 kmh NE 4.0 mph6.4 kmh 29.86 in1011.2 mb 0.00 in0.0 mm 0.00 in0.0 mm 0.00 in0.0 mm
08:05 AM 70.9°F21.6°C 58.5°F14.7°C 65% Calm Calm 4.0 mph6.4 kmh 29.87 in1011.5 mb 0.00 in0.0 mm 0.00 in0.0 mm 0.00 in0.0 mm
08:10 AM 70.9°F21.6°C 58.9°F14.9°C 66% 2.0 mph S3.2 kmh S 3.0 mph4.8 kmh 29.87 in1011.5 mb 0.00 in0.0 mm 0.00 in0.0 mm 0.00 in0.0 mm
08:15 AM 71.2°F21.8°C 60.0°F15.6°C 68% 1.0 mph E1.6 kmh E 3.0 mph4.8 kmh 29.87 in1011.5 mb 0.00 in0.0 mm 0.00 in0.0 mm 0.00 in0.0 mm
08:20 AM 72.2°F22.3°C 60.6°F15.9°C 67% Calm Calm 4.0 mph6.4 kmh 29.86 in1011.2 mb 0.00 in0.0 mm 0.00 in0.0 mm 0.00 in0.0 mm
08:25 AM 73.2°F22.9°C 60.2°F15.7°C 64% 1.0 mph SE1.6 kmh SE 3.0 mph4.8 kmh 29.86 in1011.2 mb 0.00 in0.0 mm 0.00 in0.0 mm 0.00 in0.0 mm
08:30 AM 73.6°F23.1°C 60.2°F15.7°C 63% 2.0 mph NE3.2 kmh NE 4.0 mph6.4 kmh 29.85 in1010.8 mb 0.00 in0.0 mm 0.00 in0.0 mm 0.00 in0.0 mm
08:35 AM 73.6°F23.1°C 61.0°F16.1°C 65% 1.0 mph E1.6 kmh E 4.0 mph6.4 kmh 29.85 in1010.8 mb 0.00 in0.0 mm 0.00 in0.0 mm 0.00 in0.0 mm
08:40 AM 73.5°F23.1°C 61.4°F16.3°C 66% 1.0 mph SW1.6 kmh SW 4.0 mph6.4 kmh 29.85 in1010.8 mb 0.00 in0.0 mm 0.00 in0.0 mm 0.00 in0.0 mm
08:45 AM 73.4°F23.0°C 58.6°F14.8°C 60% 1.0 mph SSW1.6 kmh SSW 5.0 mph8.0 kmh 29.86 in1011.2 mb 0.00 in0.0 mm 0.00 in0.0 mm 0.00 in0.0 mm
08:50 AM 73.4°F23.0°C 59.5°F15.3°C 62% Calm Calm 3.0 mph4.8 kmh 29.86 in1011.2 mb 0.00 in0.0 mm 0.00 in0.0 mm 0.00 in0.0 mm
08:55 AM 73.6°F23.1°C 59.3°F15.2°C 61% 1.0 mph SSE1.6 kmh SSE 3.0 mph4.8 kmh 29.85 in1010.8 mb 0.00 in0.0 mm 0.00 in0.0 mm 0.00 in0.0 mm
09:00 AM 74.2°F23.4°C 58.9°F14.9°C 59% 3.0 mph S4.8 kmh S 5.0 mph8.0 kmh 29.85 in1010.8 mb 0.00 in0.0 mm 0.00 in0.0 mm 0.00 in0.0 mm
09:05 AM 74.4°F23.6°C 59.1°F15.1°C 59% 1.0 mph SSE1.6 kmh SSE 5.0 mph8.0 kmh 29.86 in1011.2 mb 0.00 in0.0 mm 0.00 in0.0 mm 0.00 in0.0 mm
09:10 AM 74.4°F23.6°C 59.5°F15.3°C 60% 1.0 mph S1.6 kmh S 5.0 mph8.0 kmh 29.86 in1011.2 mb 0.00 in0.0 mm 0.00 in0.0 mm 0.00 in0.0 mm
09:15 AM 74.7°F23.7°C 59.8°F15.4°C 60% Calm Calm 3.0 mph4.8 kmh 29.86 in1011.2 mb 0.00 in0.0 mm 0.00 in0.0 mm 0.00 in0.0 mm
09:20 AM 75.2°F24.0°C 61.2°F16.2°C 62% 4.0 mph W6.4 kmh W 5.0 mph8.0 kmh 29.86 in1011.2 mb 0.00 in0.0 mm 0.00 in0.0 mm 0.00 in0.0 mm
09:25 AM 76.0°F24.4°C 61.5°F16.4°C 61% 5.0 mph SW8.0 kmh SW 7.0 mph11.3 kmh 29.85 in1010.8 mb 0.00 in0.0 mm 0.00 in0.0 mm 0.00 in0.0 mm
09:30 AM 76.8°F24.9°C 59.3°F15.2°C 55% 3.0 mph WSW4.8 kmh WSW 7.0 mph11.3 kmh 29.85 in1010.8 mb 0.00 in0.0 mm 0.00 in0.0 mm 0.00 in0.0 mm
09:35 AM 77.3°F25.2°C 60.8°F16.0°C 57% 6.0 mph WSW9.7 kmh WSW 10.0 mph16.1 kmh 29.85 in1010.8 mb 0.00 in0.0 mm 0.00 in0.0 mm 0.00 in0.0 mm
09:40 AM 77.5°F25.3°C 60.0°F15.6°C 55% 4.0 mph SW6.4 kmh SW 9.0 mph14.5 kmh 29.85 in1010.8 mb 0.00 in0.0 mm 0.00 in0.0 mm 0.00 in0.0 mm
09:45 AM 77.2°F25.1°C 60.7°F15.9°C 57% 5.0 mph SW8.0 kmh SW 7.0 mph11.3 kmh 29.85 in1010.8 mb 0.00 in0.0 mm 0.00 in0.0 mm 0.00 in0.0 mm
09:50 AM 76.4°F24.7°C 59.5°F15.3°C 56% 4.0 mph W6.4 kmh W 10.0 mph16.1 kmh 29.85 in1010.8 mb 0.00 in0.0 mm 0.00 in0.0 mm 0.00 in0.0 mm
09:55 AM 76.0°F24.4°C 62.0°F16.7°C 62% 4.0 mph WNW6.4 kmh WNW 11.0 mph17.7 kmh 29.85 in1010.8 mb 0.00 in0.0 mm 0.00 in0.0 mm 0.00 in0.0 mm
10:00 AM 76.2°F24.6°C 62.2°F16.8°C 62% 5.0 mph W8.0 kmh W 7.0 mph11.3 kmh 29.85 in1010.8 mb 0.00 in0.0 mm 0.00 in0.0 mm 0.00 in0.0 mm
10:05 AM 76.6°F24.8°C 62.1°F16.7°C 61% 3.0 mph W4.8 kmh W 7.0 mph11.3 kmh 29.85 in1010.8 mb 0.00 in0.0 mm 0.00 in0.0 mm 0.00 in0.0 mm
10:10 AM 77.1°F25.1°C 61.6°F16.4°C 59% 2.0 mph WSW3.2 kmh WSW 5.0 mph8.0 kmh 29.85 in1010.8 mb 0.00 in0.0 mm 0.00 in0.0 mm 0.00 in0.0 mm
10:35 AM 78.2°F25.7°C 62.1°F16.7°C 58% 6.0 mph W9.7 kmh W 9.0 mph14.5 kmh 29.85 in1010.8 mb 0.00 in0.0 mm 0.00 in0.0 mm 0.00 in0.0 mm
10:40 AM 78.3°F25.7°C 61.7°F16.5°C 57% 5.0 mph NW8.0 kmh NW 9.0 mph14.5 kmh 29.85 in1010.8 mb 0.00 in0.0 mm 0.00 in0.0 mm 0.00 in0.0 mm
11:05 AM 79.5°F26.4°C 61.8°F16.6°C 55% 4.0 mph NNW6.4 kmh NNW 7.0 mph11.3 kmh 29.85 in1010.8 mb 0.00 in0.0 mm 0.00 in0.0 mm 0.00 in0.0 mm
11:10 AM 79.4°F26.3°C 62.8°F17.1°C 57% 2.0 mph WNW3.2 kmh WNW 10.0 mph16.1 kmh 29.85 in1010.8 mb 0.00 in0.0 mm 0.00 in0.0 mm 0.00 in0.0 mm
11:15 AM 79.6°F26.4°C 63.0°F17.2°C 57% 3.0 mph W4.8 kmh W 6.0 mph9.7 kmh 29.85 in1010.8 mb 0.00 in0.0 mm 0.00 in0.0 mm 0.00 in0.0 mm
11:45 AM 79.9°F26.6°C 62.2°F16.8°C 55% 6.0 mph SW9.7 kmh SW 8.0 mph12.9 kmh 29.85 in1010.8 mb 0.00 in0.0 mm 0.00 in0.0 mm 0.00 in0.0 mm
11:50 AM 80.0°F26.7°C 61.8°F16.6°C 54% 4.0 mph W6.4 kmh W 10.0 mph16.1 kmh 29.85 in1010.8 mb 0.00 in0.0 mm 0.00 in0.0 mm 0.00 in0.0 mm
12:20 PM 80.8°F27.1°C 62.5°F16.9°C 54% 2.0 mph NW3.2 kmh NW 9.0 mph14.5 kmh 29.85 in1010.8 mb 0.00 in0.0 mm 0.00 in0.0 mm 0.00 in0.0 mm
12:25 PM 81.1°F27.3°C 61.7°F16.5°C 52% 5.0 mph WNW8.0 kmh WNW 8.0 mph12.9 kmh 29.85 in1010.8 mb 0.00 in0.0 mm 0.00 in0.0 mm 0.00 in0.0 mm
12:45 PM 82.6°F28.1°C 63.1°F17.3°C 52% 5.0 mph WNW8.0 kmh WNW 8.0 mph12.9 kmh 29.84 in1010.5 mb 0.00 in0.0 mm 0.00 in0.0 mm 0.00 in0.0 mm
12:50 PM 83.1°F28.4°C 62.5°F16.9°C 50% 2.0 mph W3.2 kmh W 10.0 mph16.1 kmh 29.84 in1010.5 mb 0.00 in0.0 mm 0.00 in0.0 mm 0.00 in0.0 mm
12:55 PM 83.3°F28.5°C 60.3°F15.7°C 46% 2.0 mph W3.2 kmh W 6.0 mph9.7 kmh 29.83 in1010.2 mb 0.00 in0.0 mm 0.00 in0.0 mm 0.00 in0.0 mm
01:15 PM 83.2°F28.4°C 60.8°F16.0°C 47% 4.0 mph WSW6.4 kmh WSW 8.0 mph12.9 kmh 29.83 in1010.2 mb 0.00 in0.0 mm 0.00 in0.0 mm 0.00 in0.0 mm
01:20 PM 83.5°F28.6°C 62.8°F17.1°C 50% 1.0 mph NW1.6 kmh NW 7.0 mph11.3 kmh 29.83 in1010.2 mb 0.00 in0.0 mm 0.00 in0.0 mm 0.00 in0.0 mm
01:55 PM 82.4°F28.0°C 64.0°F17.8°C 54% 4.0 mph 6.4 kmh 5.0 mph8.0 kmh 29.83 in1010.2 mb 0.00 in0.0 mm 0.00 in0.0 mm 0.00 in0.0 mm
02:15 PM 82.1°F27.8°C 63.2°F17.3°C 53% 3.0 mph NNE4.8 kmh NNE 6.0 mph9.7 kmh 29.83 in1010.2 mb 0.00 in0.0 mm 0.00 in0.0 mm 0.00 in0.0 mm
02:20 PM 81.5°F27.5°C 62.6°F17.0°C 53% 2.0 mph N3.2 kmh N 6.0 mph9.7 kmh 29.83 in1010.2 mb 0.00 in0.0 mm 0.00 in0.0 mm 0.00 in0.0 mm
02:25 PM 81.6°F27.6°C 63.3°F17.4°C 54% 4.0 mph W6.4 kmh W 7.0 mph11.3 kmh 29.83 in1010.2 mb 0.00 in0.0 mm 0.00 in0.0 mm 0.00 in0.0 mm
02:30 PM 81.7°F27.6°C 63.4°F17.4°C 54% 2.0 mph WNW3.2 kmh WNW 6.0 mph9.7 kmh 29.83 in1010.2 mb 0.00 in0.0 mm 0.00 in0.0 mm 0.00 in0.0 mm
02:35 PM 81.4°F27.4°C 63.1°F17.3°C 54% 4.0 mph SW6.4 kmh SW 9.0 mph14.5 kmh 29.82 in1009.8 mb 0.00 in0.0 mm 0.00 in0.0 mm 0.00 in0.0 mm
02:40 PM 81.4°F27.4°C 62.5°F16.9°C 53% 5.0 mph SW8.0 kmh SW 9.0 mph14.5 kmh 29.82 in1009.8 mb 0.00 in0.0 mm 0.00 in0.0 mm 0.00 in0.0 mm
02:45 PM 80.9°F27.2°C 61.0°F16.1°C 51% 9.0 mph WNW14.5 kmh WNW 10.0 mph16.1 kmh 29.82 in1009.8 mb 0.00 in0.0 mm 0.00 in0.0 mm 0.00 in0.0 mm
02:50 PM 80.9°F27.2°C 62.6°F17.0°C 54% 6.0 mph W9.7 kmh W 10.0 mph16.1 kmh 29.82 in1009.8 mb 0.00 in0.0 mm 0.00 in0.0 mm 0.00 in0.0 mm
02:55 PM 80.9°F27.2°C 61.0°F16.1°C 51% 6.0 mph WSW9.7 kmh WSW 10.0 mph16.1 kmh 29.82 in1009.8 mb 0.00 in0.0 mm 0.00 in0.0 mm 0.00 in0.0 mm
03:00 PM 80.9°F27.2°C 60.4°F15.8°C 50% 10.0 mph WSW16.1 kmh WSW 10.0 mph16.1 kmh 29.82 in1009.8 mb 0.00 in0.0 mm 0.00 in0.0 mm 0.00 in0.0 mm
03:05 PM 80.5°F26.9°C 59.5°F15.3°C 49% 4.0 mph WSW6.4 kmh WSW 9.0 mph14.5 kmh 29.82 in1009.8 mb 0.00 in0.0 mm 0.00 in0.0 mm 0.00 in0.0 mm
03:10 PM 80.2°F26.8°C 60.9°F16.1°C 52% 5.0 mph WNW8.0 kmh WNW 7.0 mph11.3 kmh 29.82 in1009.8 mb 0.00 in0.0 mm 0.00 in0.0 mm 0.00 in0.0 mm
03:15 PM 80.0°F26.7°C 61.3°F16.3°C 53% 4.0 mph W6.4 kmh W 9.0 mph14.5 kmh 29.82 in1009.8 mb 0.00 in0.0 mm 0.00 in0.0 mm 0.00 in0.0 mm
03:20 PM 79.9°F26.6°C 61.2°F16.2°C 53% 5.0 mph WNW8.0 kmh WNW 7.0 mph11.3 kmh 29.82 in1009.8 mb 0.00 in0.0 mm 0.00 in0.0 mm 0.00 in0.0 mm
03:25 PM 79.9°F26.6°C 61.2°F16.2°C 53% 4.0 mph W6.4 kmh W 7.0 mph11.3 kmh 29.82 in1009.8 mb 0.00 in0.0 mm 0.00 in0.0 mm 0.00 in0.0 mm
03:30 PM 80.1°F26.7°C 60.8°F16.0°C 52% 4.0 mph W6.4 kmh W 7.0 mph11.3 kmh 29.81 in1009.5 mb 0.00 in0.0 mm 0.00 in0.0 mm 0.00 in0.0 mm
03:35 PM 80.2°F26.8°C 60.9°F16.1°C 52% 3.0 mph WSW4.8 kmh WSW 6.0 mph9.7 kmh 29.81 in1009.5 mb 0.00 in0.0 mm 0.00 in0.0 mm 0.00 in0.0 mm
03:40 PM 80.6°F27.0°C 60.7°F15.9°C 51% 6.0 mph W9.7 kmh W 6.0 mph9.7 kmh 29.81 in1009.5 mb 0.00 in0.0 mm 0.00 in0.0 mm 0.00 in0.0 mm
03:45 PM 81.7°F27.6°C 60.0°F15.6°C 48% 6.0 mph WSW9.7 kmh WSW 7.0 mph11.3 kmh 29.81 in1009.5 mb 0.00 in0.0 mm 0.00 in0.0 mm 0.00 in0.0 mm
03:50 PM 82.6°F28.1°C 63.1°F17.3°C 52% 1.0 mph W1.6 kmh W 7.0 mph11.3 kmh 29.80 in1009.1 mb 0.00 in0.0 mm 0.00 in0.0 mm 0.00 in0.0 mm
03:55 PM 83.1°F28.4°C 61.3°F16.3°C 48% 3.0 mph W4.8 kmh W 9.0 mph14.5 kmh 29.80 in1009.1 mb 0.00 in0.0 mm 0.00 in0.0 mm 0.00 in0.0 mm
04:00 PM 82.7°F28.2°C 60.9°F16.1°C 48% 5.0 mph W8.0 kmh W 7.0 mph11.3 kmh 29.80 in1009.1 mb 0.00 in0.0 mm 0.00 in0.0 mm 0.00 in0.0 mm
04:05 PM 82.7°F28.2°C 61.5°F16.4°C 49% 3.0 mph W4.8 kmh W 7.0 mph11.3 kmh 29.80 in1009.1 mb 0.00 in0.0 mm 0.00 in0.0 mm 0.00 in0.0 mm
04:10 PM 82.4°F28.0°C 60.7°F15.9°C 48% 3.0 mph NW4.8 kmh NW 8.0 mph12.9 kmh 29.80 in1009.1 mb 0.00 in0.0 mm 0.00 in0.0 mm 0.00 in0.0 mm
04:15 PM 82.4°F28.0°C 61.8°F16.6°C 50% 3.0 mph WSW4.8 kmh WSW 6.0 mph9.7 kmh 29.80 in1009.1 mb 0.00 in0.0 mm 0.00 in0.0 mm 0.00 in0.0 mm
04:20 PM 83.4°F28.6°C 61.6°F16.4°C 48% 9.0 mph W14.5 kmh W 9.0 mph14.5 kmh 29.80 in1009.1 mb 0.00 in0.0 mm 0.00 in0.0 mm 0.00 in0.0 mm
04:25 PM 83.8°F28.8°C 61.3°F16.3°C 47% 2.0 mph W3.2 kmh W 9.0 mph14.5 kmh 29.79 in1008.8 mb 0.00 in0.0 mm 0.00 in0.0 mm 0.00 in0.0 mm
04:30 PM 83.7°F28.7°C 63.6°F17.6°C 51% 1.0 mph W1.6 kmh W 7.0 mph11.3 kmh 29.79 in1008.8 mb 0.00 in0.0 mm 0.00 in0.0 mm 0.00 in0.0 mm
04:35 PM 83.6°F28.7°C 61.2°F16.2°C 47% 2.0 mph W3.2 kmh W 6.0 mph9.7 kmh 29.79 in1008.8 mb 0.00 in0.0 mm 0.00 in0.0 mm 0.00 in0.0 mm
04:40 PM 82.9°F28.3°C 61.7°F16.5°C 49% 1.0 mph WNW1.6 kmh WNW 6.0 mph9.7 kmh 29.79 in1008.8 mb 0.00 in0.0 mm 0.00 in0.0 mm 0.00 in0.0 mm
04:45 PM 82.5°F28.1°C 60.7°F15.9°C 48% 2.0 mph W3.2 kmh W 6.0 mph9.7 kmh 29.79 in1008.8 mb 0.00 in0.0 mm 0.00 in0.0 mm 0.00 in0.0 mm
04:50 PM 82.3°F27.9°C 61.1°F16.2°C 49% 4.0 mph WSW6.4 kmh WSW 8.0 mph12.9 kmh 29.79 in1008.8 mb 0.00 in0.0 mm 0.00 in0.0 mm 0.00 in0.0 mm
04:55 PM 82.3°F27.9°C 60.6°F15.9°C 48% 5.0 mph WNW8.0 kmh WNW 5.0 mph8.0 kmh 29.79 in1008.8 mb 0.00 in0.0 mm 0.00 in0.0 mm 0.00 in0.0 mm
05:00 PM 82.2°F27.9°C 60.5°F15.8°C 48% 6.0 mph WNW9.7 kmh WNW 7.0 mph11.3 kmh 29.79 in1008.8 mb 0.00 in0.0 mm 0.00 in0.0 mm 0.00 in0.0 mm
05:05 PM 81.9°F27.7°C 60.2°F15.7°C 48% 3.0 mph WNW4.8 kmh WNW 6.0 mph9.7 kmh 29.79 in1008.8 mb 0.00 in0.0 mm 0.00 in0.0 mm 0.00 in0.0 mm
05:10 PM 81.5°F27.5°C 61.0°F16.1°C 50% 2.0 mph W3.2 kmh W 5.0 mph8.0 kmh 29.79 in1008.8 mb 0.00 in0.0 mm 0.00 in0.0 mm 0.00 in0.0 mm
05:15 PM 81.1°F27.3°C 60.1°F15.6°C 49% 3.0 mph WNW4.8 kmh WNW 6.0 mph9.7 kmh 29.79 in1008.8 mb 0.00 in0.0 mm 0.00 in0.0 mm 0.00 in0.0 mm
05:20 PM 80.7°F27.1°C 60.8°F16.0°C 51% 3.0 mph WNW4.8 kmh WNW 6.0 mph9.7 kmh 29.79 in1008.8 mb 0.00 in0.0 mm 0.00 in0.0 mm 0.00 in0.0 mm
05:25 PM 80.5°F26.9°C 60.6°F15.9°C 51% 4.0 mph W6.4 kmh W 6.0 mph9.7 kmh 29.79 in1008.8 mb 0.00 in0.0 mm 0.00 in0.0 mm 0.00 in0.0 mm
05:30 PM 80.3°F26.8°C 61.0°F16.1°C 52% 5.0 mph WNW8.0 kmh WNW 7.0 mph11.3 kmh 29.79 in1008.8 mb 0.00 in0.0 mm 0.00 in0.0 mm 0.00 in0.0 mm
05:35 PM 80.2°F26.8°C 61.4°F16.3°C 53% 1.0 mph WNW1.6 kmh WNW 7.0 mph11.3 kmh 29.79 in1008.8 mb 0.00 in0.0 mm 0.00 in0.0 mm 0.00 in0.0 mm
05:40 PM 80.2°F26.8°C 62.0°F16.7°C 54% 5.0 mph WNW8.0 kmh WNW 6.0 mph9.7 kmh 29.79 in1008.8 mb 0.00 in0.0 mm 0.00 in0.0 mm 0.00 in0.0 mm
05:45 PM 79.9°F26.6°C 61.7°F16.5°C 54% 6.0 mph NW9.7 kmh NW 7.0 mph11.3 kmh 29.79 in1008.8 mb 0.00 in0.0 mm 0.00 in0.0 mm 0.00 in0.0 mm
05:50 PM 79.5°F26.4°C 60.8°F16.0°C 53% 4.0 mph WNW6.4 kmh WNW 10.0 mph16.1 kmh 29.79 in1008.8 mb 0.00 in0.0 mm 0.00 in0.0 mm 0.00 in0.0 mm
05:55 PM 79.1°F26.2°C 61.0°F16.1°C 54% 3.0 mph W4.8 kmh W 6.0 mph9.7 kmh 29.79 in1008.8 mb 0.00 in0.0 mm 0.00 in0.0 mm 0.00 in0.0 mm
06:00 PM 78.6°F25.9°C 61.0°F16.1°C 55% 2.0 mph WNW3.2 kmh WNW 6.0 mph9.7 kmh 29.79 in1008.8 mb 0.00 in0.0 mm 0.00 in0.0 mm 0.00 in0.0 mm
06:05 PM 78.5°F25.8°C 61.4°F16.3°C 56% 2.0 mph WNW3.2 kmh WNW 4.0 mph6.4 kmh 29.79 in1008.8 mb 0.00 in0.0 mm 0.00 in0.0 mm 0.00 in0.0 mm
06:10 PM 78.6°F25.9°C 62.0°F16.7°C 57% 2.0 mph WNW3.2 kmh WNW 4.0 mph6.4 kmh 29.79 in1008.8 mb 0.00 in0.0 mm 0.00 in0.0 mm 0.00 in0.0 mm
06:15 PM 78.6°F25.9°C 63.5°F17.5°C 60% Calm Calm 2.0 mph3.2 kmh 29.79 in1008.8 mb 0.00 in0.0 mm 0.00 in0.0 mm 0.00 in0.0 mm
06:20 PM 78.7°F25.9°C 63.6°F17.6°C 60% 1.0 mph WNW1.6 kmh WNW 2.0 mph3.2 kmh 29.78 in1008.5 mb 0.00 in0.0 mm 0.00 in0.0 mm 0.00 in0.0 mm
06:30 PM 78.7°F25.9°C 61.6°F16.4°C 56% 2.0 mph W3.2 kmh W 4.0 mph6.4 kmh 29.78 in1008.5 mb 0.00 in0.0 mm 0.00 in0.0 mm 0.00 in0.0 mm
06:35 PM 78.6°F25.9°C 62.0°F16.7°C 57% 2.0 mph W3.2 kmh W 3.0 mph4.8 kmh 29.78 in1008.5 mb 0.00 in0.0 mm 0.00 in0.0 mm 0.00 in0.0 mm
06:40 PM 78.5°F25.8°C 61.9°F16.6°C 57% 3.0 mph WNW4.8 kmh WNW 4.0 mph6.4 kmh 29.79 in1008.8 mb 0.00 in0.0 mm 0.00 in0.0 mm 0.00 in0.0 mm
06:45 PM 78.2°F25.7°C 61.6°F16.4°C 57% 3.0 mph W4.8 kmh W 6.0 mph9.7 kmh 29.79 in1008.8 mb 0.00 in0.0 mm 0.00 in0.0 mm 0.00 in0.0 mm
06:50 PM 78.0°F25.6°C 61.5°F16.4°C 57% 1.0 mph WNW1.6 kmh WNW 5.0 mph8.0 kmh 29.79 in1008.8 mb 0.00 in0.0 mm 0.00 in0.0 mm 0.00 in0.0 mm
06:55 PM 77.9°F25.5°C 60.9°F16.1°C 56% 2.0 mph WNW3.2 kmh WNW 7.0 mph11.3 kmh 29.79 in1008.8 mb 0.00 in0.0 mm 0.00 in0.0 mm 0.00 in0.0 mm
07:00 PM 77.7°F25.4°C 61.2°F16.2°C 57% 3.0 mph NW4.8 kmh NW 6.0 mph9.7 kmh 29.79 in1008.8 mb 0.00 in0.0 mm 0.00 in0.0 mm 0.00 in0.0 mm
07:05 PM 77.5°F25.3°C 61.0°F16.1°C 57% 4.0 mph WNW6.4 kmh WNW 6.0 mph9.7 kmh 29.79 in1008.8 mb 0.00 in0.0 mm 0.00 in0.0 mm 0.00 in0.0 mm
07:10 PM 77.3°F25.2°C 60.8°F16.0°C 57% 5.0 mph NW8.0 kmh NW 6.0 mph9.7 kmh 29.79 in1008.8 mb 0.00 in0.0 mm 0.00 in0.0 mm 0.00 in0.0 mm
07:15 PM 77.2°F25.1°C 61.2°F16.2°C 58% 1.0 mph WNW1.6 kmh WNW 6.0 mph9.7 kmh 29.79 in1008.8 mb 0.00 in0.0 mm 0.00 in0.0 mm 0.00 in0.0 mm
07:20 PM 77.0°F25.0°C 61.5°F16.4°C 59% 1.0 mph WNW1.6 kmh WNW 7.0 mph11.3 kmh 29.79 in1008.8 mb 0.00 in0.0 mm 0.00 in0.0 mm 0.00 in0.0 mm
07:25 PM 76.9°F24.9°C 61.4°F16.3°C 59% 2.0 mph W3.2 kmh W 5.0 mph8.0 kmh 29.79 in1008.8 mb 0.00 in0.0 mm 0.00 in0.0 mm 0.00 in0.0 mm
07:30 PM 76.8°F24.9°C 61.3°F16.3°C 59% 4.0 mph WNW6.4 kmh WNW 7.0 mph11.3 kmh 29.79 in1008.8 mb 0.00 in0.0 mm 0.00 in0.0 mm 0.00 in0.0 mm
07:35 PM 76.6°F24.8°C 61.6°F16.4°C 60% 3.0 mph WNW4.8 kmh WNW 6.0 mph9.7 kmh 29.79 in1008.8 mb 0.00 in0.0 mm 0.00 in0.0 mm 0.00 in0.0 mm
07:40 PM 76.4°F24.7°C 61.4°F16.3°C 60% 4.0 mph W6.4 kmh W 6.0 mph9.7 kmh 29.79 in1008.8 mb 0.00 in0.0 mm 0.00 in0.0 mm 0.00 in0.0 mm
07:45 PM 76.3°F24.6°C 61.3°F16.3°C 60% 4.0 mph WNW6.4 kmh WNW 9.0 mph14.5 kmh 29.80 in1009.1 mb 0.00 in0.0 mm 0.00 in0.0 mm 0.00 in0.0 mm
07:50 PM 76.0°F24.4°C 61.0°F16.1°C 60% 3.0 mph WNW4.8 kmh WNW 6.0 mph9.7 kmh 29.80 in1009.1 mb 0.00 in0.0 mm 0.00 in0.0 mm 0.00 in0.0 mm
07:55 PM 75.8°F24.3°C 60.9°F16.1°C 60% 4.0 mph W6.4 kmh W 7.0 mph11.3 kmh 29.80 in1009.1 mb 0.00 in0.0 mm 0.00 in0.0 mm 0.00 in0.0 mm
08:00 PM 75.7°F24.3°C 61.2°F16.2°C 61% 4.0 mph WNW6.4 kmh WNW 6.0 mph9.7 kmh 29.80 in1009.1 mb 0.00 in0.0 mm 0.00 in0.0 mm 0.00 in0.0 mm
08:05 PM 75.5°F24.2°C 61.0°F16.1°C 61% 4.0 mph WNW6.4 kmh WNW 6.0 mph9.7 kmh 29.80 in1009.1 mb 0.00 in0.0 mm 0.00 in0.0 mm 0.00 in0.0 mm
08:10 PM 75.3°F24.1°C 61.3°F16.3°C 62% 2.0 mph WNW3.2 kmh WNW 5.0 mph8.0 kmh 29.80 in1009.1 mb 0.00 in0.0 mm 0.00 in0.0 mm 0.00 in0.0 mm
08:15 PM 75.2°F24.0°C 61.2°F16.2°C 62% 6.0 mph WNW9.7 kmh WNW 7.0 mph11.3 kmh 29.80 in1009.1 mb 0.00 in0.0 mm 0.00 in0.0 mm 0.00 in0.0 mm
08:20 PM 75.0°F23.9°C 61.5°F16.4°C 63% 6.0 mph WNW9.7 kmh WNW 11.0 mph17.7 kmh 29.80 in1009.1 mb 0.00 in0.0 mm 0.00 in0.0 mm 0.00 in0.0 mm
08:25 PM 74.8°F23.8°C 61.3°F16.3°C 63% 6.0 mph WNW9.7 kmh WNW 10.0 mph16.1 kmh 29.81 in1009.5 mb 0.00 in0.0 mm 0.00 in0.0 mm 0.00 in0.0 mm
08:30 PM 74.6°F23.7°C 61.1°F16.2°C 63% 6.0 mph WNW9.7 kmh WNW 11.0 mph17.7 kmh 29.81 in1009.5 mb 0.00 in0.0 mm 0.00 in0.0 mm 0.00 in0.0 mm
08:35 PM 74.3°F23.5°C 61.3°F16.3°C 64% 5.0 mph NW8.0 kmh NW 12.0 mph19.3 kmh 29.81 in1009.5 mb 0.00 in0.0 mm 0.00 in0.0 mm 0.00 in0.0 mm
08:40 PM 74.1°F23.4°C 61.5°F16.4°C 65% 2.0 mph NW3.2 kmh NW 6.0 mph9.7 kmh 29.82 in1009.8 mb 0.00 in0.0 mm 0.00 in0.0 mm 0.00 in0.0 mm
08:45 PM 73.7°F23.2°C 61.6°F16.4°C 66% 2.0 mph WNW3.2 kmh WNW 6.0 mph9.7 kmh 29.81 in1009.5 mb 0.00 in0.0 mm 0.00 in0.0 mm 0.00 in0.0 mm
08:50 PM 73.2°F22.9°C 61.5°F16.4°C 67% 3.0 mph W4.8 kmh W 10.0 mph16.1 kmh 29.81 in1009.5 mb 0.00 in0.0 mm 0.00 in0.0 mm 0.00 in0.0 mm
08:55 PM 72.9°F22.7°C 61.7°F16.5°C 68% 3.0 mph W4.8 kmh W 4.0 mph6.4 kmh 29.81 in1009.5 mb 0.00 in0.0 mm 0.00 in0.0 mm 0.00 in0.0 mm
09:00 PM 72.6°F22.6°C 61.4°F16.3°C 68% Calm Calm 5.0 mph8.0 kmh 29.82 in1009.8 mb 0.00 in0.0 mm 0.00 in0.0 mm 0.00 in0.0 mm
09:05 PM 72.4°F22.4°C 61.6°F16.4°C 69% 1.0 mph WNW1.6 kmh WNW 2.0 mph3.2 kmh 29.82 in1009.8 mb 0.00 in0.0 mm 0.00 in0.0 mm 0.00 in0.0 mm
09:10 PM 72.1°F22.3°C 61.7°F16.5°C 70% 4.0 mph NW6.4 kmh NW 6.0 mph9.7 kmh 29.82 in1009.8 mb 0.00 in0.0 mm 0.00 in0.0 mm 0.00 in0.0 mm
09:15 PM 71.8°F22.1°C 61.4°F16.3°C 70% 3.0 mph WNW4.8 kmh WNW 5.0 mph8.0 kmh 29.82 in1009.8 mb 0.00 in0.0 mm 0.00 in0.0 mm 0.00 in0.0 mm
09:20 PM 71.6°F22.0°C 61.6°F16.4°C 71% 4.0 mph WNW6.4 kmh WNW 7.0 mph11.3 kmh 29.83 in1010.2 mb 0.00 in0.0 mm 0.00 in0.0 mm 0.00 in0.0 mm
09:25 PM 71.5°F21.9°C 61.5°F16.4°C 71% 2.0 mph 3.2 kmh 6.0 mph9.7 kmh 29.83 in1010.2 mb 0.00 in0.0 mm 0.00 in0.0 mm 0.00 in0.0 mm
09:30 PM 71.1°F21.7°C 61.9°F16.6°C 73% 3.0 mph NE4.8 kmh NE 6.0 mph9.7 kmh 29.84 in1010.5 mb 0.00 in0.0 mm 0.00 in0.0 mm 0.00 in0.0 mm
09:35 PM 70.5°F21.4°C 61.8°F16.6°C 74% 2.0 mph N3.2 kmh N 6.0 mph9.7 kmh 29.84 in1010.5 mb 0.00 in0.0 mm 0.00 in0.0 mm 0.00 in0.0 mm
09:40 PM 70.4°F21.3°C 61.7°F16.5°C 74% Calm Calm 3.0 mph4.8 kmh 29.85 in1010.8 mb 0.00 in0.0 mm 0.00 in0.0 mm 0.00 in0.0 mm
09:45 PM 70.5°F21.4°C 61.4°F16.3°C 73% 2.0 mph NNW3.2 kmh NNW 6.0 mph9.7 kmh 29.85 in1010.8 mb 0.00 in0.0 mm 0.00 in0.0 mm 0.00 in0.0 mm
09:50 PM 70.5°F21.4°C 61.4°F16.3°C 73% 1.0 mph N1.6 kmh N 3.0 mph4.8 kmh 29.85 in1010.8 mb 0.00 in0.0 mm 0.00 in0.0 mm 0.00 in0.0 mm
09:55 PM 70.6°F21.4°C 61.5°F16.4°C 73% 4.0 mph WNW6.4 kmh WNW 5.0 mph8.0 kmh 29.85 in1010.8 mb 0.00 in0.0 mm 0.00 in0.0 mm 0.00 in0.0 mm
10:00 PM 70.6°F21.4°C 61.5°F16.4°C 73% 1.0 mph WNW1.6 kmh WNW 6.0 mph9.7 kmh 29.85 in1010.8 mb 0.00 in0.0 mm 0.00 in0.0 mm 0.00 in0.0 mm
10:05 PM 70.6°F21.4°C 61.5°F16.4°C 73% 2.0 mph WNW3.2 kmh WNW 3.0 mph4.8 kmh 29.85 in1010.8 mb 0.00 in0.0 mm 0.00 in0.0 mm 0.00 in0.0 mm
10:10 PM 70.6°F21.4°C 61.5°F16.4°C 73% 2.0 mph WNW3.2 kmh WNW 4.0 mph6.4 kmh 29.85 in1010.8 mb 0.00 in0.0 mm 0.00 in0.0 mm 0.00 in0.0 mm
10:15 PM 70.5°F21.4°C 61.4°F16.3°C 73% 4.0 mph WSW6.4 kmh WSW 6.0 mph9.7 kmh 29.85 in1010.8 mb 0.00 in0.0 mm 0.00 in0.0 mm 0.00 in0.0 mm
10:20 PM 70.3°F21.3°C 61.2°F16.2°C 73% 4.0 mph W6.4 kmh W 6.0 mph9.7 kmh 29.86 in1011.2 mb 0.00 in0.0 mm 0.00 in0.0 mm 0.00 in0.0 mm
10:25 PM 70.2°F21.2°C 61.1°F16.2°C 73% 5.0 mph SW8.0 kmh SW 6.0 mph9.7 kmh 29.86 in1011.2 mb 0.00 in0.0 mm 0.00 in0.0 mm 0.00 in0.0 mm
10:30 PM 70.0°F21.1°C 61.6°F16.4°C 75% 5.0 mph SW8.0 kmh SW 7.0 mph11.3 kmh 29.86 in1011.2 mb 0.00 in0.0 mm 0.00 in0.0 mm 0.00 in0.0 mm
10:35 PM 69.6°F20.9°C 61.3°F16.3°C 75% 9.0 mph WSW14.5 kmh WSW 9.0 mph14.5 kmh 29.85 in1010.8 mb 0.00 in0.0 mm 0.00 in0.0 mm 0.00 in0.0 mm
10:40 PM 69.1°F20.6°C 60.8°F16.0°C 75% 6.0 mph W9.7 kmh W 10.0 mph16.1 kmh 29.85 in1010.8 mb 0.00 in0.0 mm 0.00 in0.0 mm 0.00 in0.0 mm
10:45 PM 68.6°F20.3°C 60.7°F15.9°C 76% 7.0 mph WSW11.3 kmh WSW 9.0 mph14.5 kmh 29.85 in1010.8 mb 0.00 in0.0 mm 0.00 in0.0 mm 0.00 in0.0 mm
10:50 PM 68.1°F20.1°C 60.6°F15.9°C 77% 3.0 mph SW4.8 kmh SW 7.0 mph11.3 kmh 29.86 in1011.2 mb 0.00 in0.0 mm 0.00 in0.0 mm 0.00 in0.0 mm
10:55 PM 67.8°F19.9°C 61.0°F16.1°C 79% 3.0 mph W4.8 kmh W 6.0 mph9.7 kmh 29.86 in1011.2 mb 0.00 in0.0 mm 0.00 in0.0 mm 0.00 in0.0 mm
11:00 PM 67.5°F19.7°C 61.1°F16.2°C 80% 4.0 mph WSW6.4 kmh WSW 7.0 mph11.3 kmh 29.87 in1011.5 mb 0.00 in0.0 mm 0.00 in0.0 mm 0.00 in0.0 mm
11:05 PM 67.1°F19.5°C 61.0°F16.1°C 81% 6.0 mph SW9.7 kmh SW 6.0 mph9.7 kmh 29.87 in1011.5 mb 0.00 in0.0 mm 0.00 in0.0 mm 0.00 in0.0 mm
11:10 PM 66.8°F19.3°C 60.4°F15.8°C 80% 5.0 mph WSW8.0 kmh WSW 9.0 mph14.5 kmh 29.87 in1011.5 mb 0.01 in0.3 mm 0.12 in3.0 mm 0.01 in0.3 mm
11:15 PM 66.7°F19.3°C 60.6°F15.9°C 81% 2.0 mph SW3.2 kmh SW 9.0 mph14.5 kmh 29.87 in1011.5 mb 0.01 in0.3 mm 0.00 in0.0 mm 0.01 in0.3 mm
11:20 PM 66.6°F19.2°C 60.5°F15.8°C 81% 4.0 mph SW6.4 kmh SW 6.0 mph9.7 kmh 29.87 in1011.5 mb 0.01 in0.3 mm 0.00 in0.0 mm 0.01 in0.3 mm
11:25 PM 66.4°F19.1°C 60.7°F15.9°C 82% 6.0 mph SW9.7 kmh SW 7.0 mph11.3 kmh 29.87 in1011.5 mb 0.01 in0.3 mm 0.00 in0.0 mm 0.01 in0.3 mm
11:30 PM 66.3°F19.1°C 60.6°F15.9°C 82% 4.0 mph SSW6.4 kmh SSW 10.0 mph16.1 kmh 29.87 in1011.5 mb 0.01 in0.3 mm 0.00 in0.0 mm 0.01 in0.3 mm
11:35 PM 66.2°F19.0°C 60.1°F15.6°C 81% 4.0 mph SW6.4 kmh SW 7.0 mph11.3 kmh 29.88 in1011.9 mb 0.01 in0.3 mm 0.00 in0.0 mm 0.01 in0.3 mm
11:40 PM 66.2°F19.0°C 60.1°F15.6°C 81% 6.0 mph SW9.7 kmh SW 6.0 mph9.7 kmh 29.88 in1011.9 mb 0.01 in0.3 mm 0.00 in0.0 mm 0.01 in0.3 mm
11:45 PM 66.1°F18.9°C 60.4°F15.8°C 82% 2.0 mph WSW3.2 kmh WSW 5.0 mph8.0 kmh 29.87 in1011.5 mb 0.01 in0.3 mm 0.00 in0.0 mm 0.01 in0.3 mm
11:50 PM 66.0°F18.9°C 60.6°F15.9°C 83% 3.0 mph SW4.8 kmh SW 5.0 mph8.0 kmh 29.87 in1011.5 mb 0.01 in0.3 mm 0.00 in0.0 mm 0.01 in0.3 mm
11:55 PM 65.8°F18.8°C 60.4°F15.8°C 83% 2.0 mph SW3.2 kmh SW 4.0 mph6.4 kmh 29.87 in1011.5 mb 0.01 in0.3 mm 0.00 in0.0 mm 0.01 in0.3 mm